sensor_id;sensor_type;location;lat;lon;timestamp;temperature;humidity
54124;DHT22;55741;53.252;5.788;2023-12-29T00:01:58;10.00;99.90
54124;DHT22;55741;53.252;5.788;2023-12-29T00:04:25;10.00;99.90
54124;DHT22;55741;53.252;5.788;2023-12-29T00:06:51;10.00;99.90
54124;DHT22;55741;53.252;5.788;2023-12-29T00:09:17;10.00;99.90
54124;DHT22;55741;53.252;5.788;2023-12-29T00:11:50;10.00;99.90
54124;DHT22;55741;53.252;5.788;2023-12-29T00:14:16;10.10;99.90
54124;DHT22;55741;53.252;5.788;2023-12-29T00:16:42;10.10;99.90
54124;DHT22;55741;53.252;5.788;2023-12-29T00:19:13;10.10;99.90
54124;DHT22;55741;53.252;5.788;2023-12-29T00:21:38;10.10;99.90
54124;DHT22;55741;53.252;5.788;2023-12-29T00:24:05;10.10;99.90
54124;DHT22;55741;53.252;5.788;2023-12-29T00:26:31;10.00;99.90
54124;DHT22;55741;53.252;5.788;2023-12-29T00:28:57;10.10;99.90
54124;DHT22;55741;53.252;5.788;2023-12-29T00:31:23;10.10;99.90
54124;DHT22;55741;53.252;5.788;2023-12-29T00:33:49;10.00;99.90
54124;DHT22;55741;53.252;5.788;2023-12-29T00:36:18;10.00;99.90
54124;DHT22;55741;53.252;5.788;2023-12-29T00:38:46;10.10;99.90
54124;DHT22;55741;53.252;5.788;2023-12-29T00:41:12;10.10;99.90
54124;DHT22;55741;53.252;5.788;2023-12-29T00:43:37;10.10;99.90
54124;DHT22;55741;53.252;5.788;2023-12-29T00:46:05;10.00;99.90
54124;DHT22;55741;53.252;5.788;2023-12-29T00:48:31;10.10;99.90
54124;DHT22;55741;53.252;5.788;2023-12-29T00:50:57;10.10;99.90
54124;DHT22;55741;53.252;5.788;2023-12-29T00:53:24;10.10;99.90
54124;DHT22;55741;53.252;5.788;2023-12-29T00:55:49;10.10;99.90
54124;DHT22;55741;53.252;5.788;2023-12-29T00:58:35;10.10;99.90
54124;DHT22;55741;53.252;5.788;2023-12-29T01:01:01;10.10;99.90
54124;DHT22;55741;53.252;5.788;2023-12-29T01:03:27;10.10;99.90
54124;DHT22;55741;53.252;5.788;2023-12-29T01:05:53;10.10;99.90
54124;DHT22;55741;53.252;5.788;2023-12-29T01:08:19;10.10;99.90
54124;DHT22;55741;53.252;5.788;2023-12-29T01:10:45;10.10;99.90
54124;DHT22;55741;53.252;5.788;2023-12-29T01:13:11;10.10;99.90
54124;DHT22;55741;53.252;5.788;2023-12-29T01:15:37;10.10;99.90
54124;DHT22;55741;53.252;5.788;2023-12-29T01:18:03;10.10;99.90
54124;DHT22;55741;53.252;5.788;2023-12-29T01:20:29;10.10;99.90
54124;DHT22;55741;53.252;5.788;2023-12-29T01:23:15;10.10;99.90
54124;DHT22;55741;53.252;5.788;2023-12-29T01:26:00;10.10;99.90
54124;DHT22;55741;53.252;5.788;2023-12-29T01:28:26;10.20;99.90
54124;DHT22;55741;53.252;5.788;2023-12-29T01:31:12;10.10;99.90
54124;DHT22;55741;53.252;5.788;2023-12-29T01:33:39;10.10;99.90
54124;DHT22;55741;53.252;5.788;2023-12-29T01:36:05;10.10;99.90
54124;DHT22;55741;53.252;5.788;2023-12-29T01:38:31;10.10;99.90
54124;DHT22;55741;53.252;5.788;2023-12-29T01:40:57;10.20;99.90
54124;DHT22;55741;53.252;5.788;2023-12-29T01:43:23;10.10;99.90
54124;DHT22;55741;53.252;5.788;2023-12-29T01:45:49;10.20;99.90
54124;DHT22;55741;53.252;5.788;2023-12-29T01:48:17;10.20;99.90
54124;DHT22;55741;53.252;5.788;2023-12-29T01:50:43;10.20;99.90
54124;DHT22;55741;53.252;5.788;2023-12-29T01:53:10;10.10;99.90
54124;DHT22;55741;53.252;5.788;2023-12-29T01:55:37;10.10;99.90
54124;DHT22;55741;53.252;5.788;2023-12-29T01:58:03;10.10;99.90
54124;DHT22;55741;53.252;5.788;2023-12-29T02:00:29;10.00;99.90
54124;DHT22;55741;53.252;5.788;2023-12-29T02:02:57;10.00;99.90
54124;DHT22;55741;53.252;5.788;2023-12-29T02:05:24;9.90;99.90
54124;DHT22;55741;53.252;5.788;2023-12-29T02:07:52;9.90;99.90
54124;DHT22;55741;53.252;5.788;2023-12-29T02:10:19;9.90;99.90
54124;DHT22;55741;53.252;5.788;2023-12-29T02:12:47;9.90;99.90
54124;DHT22;55741;53.252;5.788;2023-12-29T02:15:15;9.80;99.90
54124;DHT22;55741;53.252;5.788;2023-12-29T02:17:55;9.80;99.90
54124;DHT22;55741;53.252;5.788;2023-12-29T02:20:42;9.80;99.90
54124;DHT22;55741;53.252;5.788;2023-12-29T02:23:08;9.80;99.90
54124;DHT22;55741;53.252;5.788;2023-12-29T02:25:35;9.70;99.90
54124;DHT22;55741;53.252;5.788;2023-12-29T02:28:27;9.70;99.90
54124;DHT22;55741;53.252;5.788;2023-12-29T02:31:07;9.70;99.90
54124;DHT22;55741;53.252;5.788;2023-12-29T02:33:38;9.70;99.90
54124;DHT22;55741;53.252;5.788;2023-12-29T02:36:06;9.80;99.90
54124;DHT22;55741;53.252;5.788;2023-12-29T02:38:33;9.80;99.90
54124;DHT22;55741;53.252;5.788;2023-12-29T02:40:59;9.90;99.90
54124;DHT22;55741;53.252;5.788;2023-12-29T02:43:25;9.90;99.90
54124;DHT22;55741;53.252;5.788;2023-12-29T02:45:51;9.90;99.90
54124;DHT22;55741;53.252;5.788;2023-12-29T02:48:19;9.80;99.90
54124;DHT22;55741;53.252;5.788;2023-12-29T02:50:44;9.90;99.90
54124;DHT22;55741;53.252;5.788;2023-12-29T02:53:11;9.90;99.90
54124;DHT22;55741;53.252;5.788;2023-12-29T02:55:37;9.80;99.90
54124;DHT22;55741;53.252;5.788;2023-12-29T02:58:03;9.80;99.90
54124;DHT22;55741;53.252;5.788;2023-12-29T03:00:29;9.80;99.90
54124;DHT22;55741;53.252;5.788;2023-12-29T03:02:55;9.80;99.90
54124;DHT22;55741;53.252;5.788;2023-12-29T03:05:21;9.80;99.90
54124;DHT22;55741;53.252;5.788;2023-12-29T03:07:47;9.80;99.90
54124;DHT22;55741;53.252;5.788;2023-12-29T03:10:13;9.80;99.90
54124;DHT22;55741;53.252;5.788;2023-12-29T03:12:39;9.80;99.90
54124;DHT22;55741;53.252;5.788;2023-12-29T03:15:05;9.80;99.90
54124;DHT22;55741;53.252;5.788;2023-12-29T03:17:31;9.80;99.90
54124;DHT22;55741;53.252;5.788;2023-12-29T03:19:58;9.80;99.90
54124;DHT22;55741;53.252;5.788;2023-12-29T03:22:24;9.80;99.90
54124;DHT22;55741;53.252;5.788;2023-12-29T03:24:50;9.80;99.90
54124;DHT22;55741;53.252;5.788;2023-12-29T03:27:16;9.80;99.90
54124;DHT22;55741;53.252;5.788;2023-12-29T03:29:41;9.70;99.90
54124;DHT22;55741;53.252;5.788;2023-12-29T03:32:07;9.80;99.90
54124;DHT22;55741;53.252;5.788;2023-12-29T03:34:33;9.70;99.90
54124;DHT22;55741;53.252;5.788;2023-12-29T03:36:59;9.70;99.90
54124;DHT22;55741;53.252;5.788;2023-12-29T03:39:25;9.70;99.90
54124;DHT22;55741;53.252;5.788;2023-12-29T03:41:51;9.70;99.90
54124;DHT22;55741;53.252;5.788;2023-12-29T03:44:16;9.70;99.90
54124;DHT22;55741;53.252;5.788;2023-12-29T03:46:43;9.60;99.90
54124;DHT22;55741;53.252;5.788;2023-12-29T03:49:10;9.60;99.90
54124;DHT22;55741;53.252;5.788;2023-12-29T03:51:37;9.60;99.90
54124;DHT22;55741;53.252;5.788;2023-12-29T03:54:03;9.60;99.90
54124;DHT22;55741;53.252;5.788;2023-12-29T03:56:29;9.60;99.90
54124;DHT22;55741;53.252;5.788;2023-12-29T03:58:55;9.60;99.90
54124;DHT22;55741;53.252;5.788;2023-12-29T04:01:20;9.50;99.90
54124;DHT22;55741;53.252;5.788;2023-12-29T04:03:46;9.50;99.90
54124;DHT22;55741;53.252;5.788;2023-12-29T04:06:12;9.40;99.90
54124;DHT22;55741;53.252;5.788;2023-12-29T04:08:38;9.50;99.90
54124;DHT22;55741;53.252;5.788;2023-12-29T04:11:04;9.50;99.90
54124;DHT22;55741;53.252;5.788;2023-12-29T04:13:31;9.50;99.90
54124;DHT22;55741;53.252;5.788;2023-12-29T04:15:57;9.50;99.90
54124;DHT22;55741;53.252;5.788;2023-12-29T04:18:23;9.50;99.90
54124;DHT22;55741;53.252;5.788;2023-12-29T04:20:50;9.50;99.90
54124;DHT22;55741;53.252;5.788;2023-12-29T04:23:16;9.50;99.90
54124;DHT22;55741;53.252;5.788;2023-12-29T04:25:42;9.50;99.90
54124;DHT22;55741;53.252;5.788;2023-12-29T04:28:08;9.50;99.90
54124;DHT22;55741;53.252;5.788;2023-12-29T04:30:35;9.40;99.90
54124;DHT22;55741;53.252;5.788;2023-12-29T04:33:01;9.40;99.90
54124;DHT22;55741;53.252;5.788;2023-12-29T04:35:27;9.40;99.90
54124;DHT22;55741;53.252;5.788;2023-12-29T04:37:53;9.40;99.90
54124;DHT22;55741;53.252;5.788;2023-12-29T04:40:19;9.40;99.90
54124;DHT22;55741;53.252;5.788;2023-12-29T04:42:45;9.30;99.90
54124;DHT22;55741;53.252;5.788;2023-12-29T04:45:11;9.40;99.90
54124;DHT22;55741;53.252;5.788;2023-12-29T04:47:37;9.40;99.90
54124;DHT22;55741;53.252;5.788;2023-12-29T04:50:05;9.40;99.90
54124;DHT22;55741;53.252;5.788;2023-12-29T04:52:32;9.40;99.90
54124;DHT22;55741;53.252;5.788;2023-12-29T04:54:57;9.40;99.90
54124;DHT22;55741;53.252;5.788;2023-12-29T04:57:23;9.40;99.90
54124;DHT22;55741;53.252;5.788;2023-12-29T04:59:49;9.40;99.90
54124;DHT22;55741;53.252;5.788;2023-12-29T05:02:35;9.50;99.90
54124;DHT22;55741;53.252;5.788;2023-12-29T05:05:01;9.50;99.90
54124;DHT22;55741;53.252;5.788;2023-12-29T05:07:27;9.40;99.90
54124;DHT22;55741;53.252;5.788;2023-12-29T05:09:53;9.50;99.90
54124;DHT22;55741;53.252;5.788;2023-12-29T05:12:18;9.50;99.90
54124;DHT22;55741;53.252;5.788;2023-12-29T05:14:44;9.40;99.90
54124;DHT22;55741;53.252;5.788;2023-12-29T05:17:10;9.50;99.90
54124;DHT22;55741;53.252;5.788;2023-12-29T05:19:36;9.50;99.90
54124;DHT22;55741;53.252;5.788;2023-12-29T05:22:22;9.50;99.90
54124;DHT22;55741;53.252;5.788;2023-12-29T05:24:47;9.40;99.90
54124;DHT22;55741;53.252;5.788;2023-12-29T05:27:13;9.40;99.90
54124;DHT22;55741;53.252;5.788;2023-12-29T05:29:39;9.50;99.90
54124;DHT22;55741;53.252;5.788;2023-12-29T05:32:05;9.40;99.90
54124;DHT22;55741;53.252;5.788;2023-12-29T05:34:31;9.50;99.90
54124;DHT22;55741;53.252;5.788;2023-12-29T05:36:57;9.50;99.90
54124;DHT22;55741;53.252;5.788;2023-12-29T05:39:23;9.50;99.90
54124;DHT22;55741;53.252;5.788;2023-12-29T05:41:50;9.50;99.90
54124;DHT22;55741;53.252;5.788;2023-12-29T05:44:15;9.50;99.90
54124;DHT22;55741;53.252;5.788;2023-12-29T05:46:46;9.50;99.90
54124;DHT22;55741;53.252;5.788;2023-12-29T05:49:12;9.50;99.90
54124;DHT22;55741;53.252;5.788;2023-12-29T05:51:39;9.50;99.90
54124;DHT22;55741;53.252;5.788;2023-12-29T05:54:05;9.50;99.90
54124;DHT22;55741;53.252;5.788;2023-12-29T05:56:51;9.50;99.90
54124;DHT22;55741;53.252;5.788;2023-12-29T05:59:17;9.50;99.90
54124;DHT22;55741;53.252;5.788;2023-12-29T06:01:43;9.50;99.90
54124;DHT22;55741;53.252;5.788;2023-12-29T06:04:09;9.50;99.90
54124;DHT22;55741;53.252;5.788;2023-12-29T06:06:35;9.50;99.90
54124;DHT22;55741;53.252;5.788;2023-12-29T06:09:01;9.50;99.90
54124;DHT22;55741;53.252;5.788;2023-12-29T06:11:26;9.50;99.90
54124;DHT22;55741;53.252;5.788;2023-12-29T06:13:52;9.60;99.90
54124;DHT22;55741;53.252;5.788;2023-12-29T06:16:19;9.60;99.90
54124;DHT22;55741;53.252;5.788;2023-12-29T06:18:45;9.60;99.90
54124;DHT22;55741;53.252;5.788;2023-12-29T06:21:11;9.60;99.90
54124;DHT22;55741;53.252;5.788;2023-12-29T06:23:37;9.60;99.90
54124;DHT22;55741;53.252;5.788;2023-12-29T06:26:03;9.60;99.90
54124;DHT22;55741;53.252;5.788;2023-12-29T06:28:29;9.60;99.90
54124;DHT22;55741;53.252;5.788;2023-12-29T06:30:55;9.60;99.90
54124;DHT22;55741;53.252;5.788;2023-12-29T06:33:21;9.70;99.90
54124;DHT22;55741;53.252;5.788;2023-12-29T06:35:48;9.60;99.90
54124;DHT22;55741;53.252;5.788;2023-12-29T06:38:14;9.60;99.90
54124;DHT22;55741;53.252;5.788;2023-12-29T06:40:40;9.60;99.90
54124;DHT22;55741;53.252;5.788;2023-12-29T06:43:06;9.60;99.90
54124;DHT22;55741;53.252;5.788;2023-12-29T06:45:32;9.70;99.90
54124;DHT22;55741;53.252;5.788;2023-12-29T06:47:57;9.60;99.90
54124;DHT22;55741;53.252;5.788;2023-12-29T06:50:24;9.70;99.90
54124;DHT22;55741;53.252;5.788;2023-12-29T06:53:11;9.60;99.90
54124;DHT22;55741;53.252;5.788;2023-12-29T06:55:37;9.60;99.90
54124;DHT22;55741;53.252;5.788;2023-12-29T06:58:23;9.60;99.90
54124;DHT22;55741;53.252;5.788;2023-12-29T07:00:49;9.60;99.90
54124;DHT22;55741;53.252;5.788;2023-12-29T07:03:14;9.60;99.90
54124;DHT22;55741;53.252;5.788;2023-12-29T07:05:40;9.60;99.90
54124;DHT22;55741;53.252;5.788;2023-12-29T07:08:06;9.50;99.90
54124;DHT22;55741;53.252;5.788;2023-12-29T07:10:32;9.50;99.90
54124;DHT22;55741;53.252;5.788;2023-12-29T07:12:58;9.50;99.90
54124;DHT22;55741;53.252;5.788;2023-12-29T07:15:24;9.50;99.90
54124;DHT22;55741;53.252;5.788;2023-12-29T07:17:50;9.50;99.90
54124;DHT22;55741;53.252;5.788;2023-12-29T07:20:16;9.50;99.90
54124;DHT22;55741;53.252;5.788;2023-12-29T07:22:42;9.50;99.90
54124;DHT22;55741;53.252;5.788;2023-12-29T07:25:09;9.50;99.90
54124;DHT22;55741;53.252;5.788;2023-12-29T07:27:34;9.60;99.90
54124;DHT22;55741;53.252;5.788;2023-12-29T07:30:00;9.50;99.90
54124;DHT22;55741;53.252;5.788;2023-12-29T07:32:26;9.60;99.90
54124;DHT22;55741;53.252;5.788;2023-12-29T07:34:52;9.60;99.90
54124;DHT22;55741;53.252;5.788;2023-12-29T07:37:18;9.60;99.90
54124;DHT22;55741;53.252;5.788;2023-12-29T07:40:05;9.60;99.90
54124;DHT22;55741;53.252;5.788;2023-12-29T07:42:33;9.60;99.90
54124;DHT22;55741;53.252;5.788;2023-12-29T07:44:59;9.50;99.90
54124;DHT22;55741;53.252;5.788;2023-12-29T07:47:45;9.50;99.90
54124;DHT22;55741;53.252;5.788;2023-12-29T07:50:11;9.50;99.90
54124;DHT22;55741;53.252;5.788;2023-12-29T07:52:37;9.50;99.90
54124;DHT22;55741;53.252;5.788;2023-12-29T07:55:04;9.50;99.90
54124;DHT22;55741;53.252;5.788;2023-12-29T07:57:30;9.50;99.90
54124;DHT22;55741;53.252;5.788;2023-12-29T07:59:56;9.50;99.90
54124;DHT22;55741;53.252;5.788;2023-12-29T08:02:22;9.50;99.90
54124;DHT22;55741;53.252;5.788;2023-12-29T08:04:48;9.50;99.90
54124;DHT22;55741;53.252;5.788;2023-12-29T08:07:14;9.40;99.90
54124;DHT22;55741;53.252;5.788;2023-12-29T08:09:40;9.40;99.90
54124;DHT22;55741;53.252;5.788;2023-12-29T08:12:06;9.50;99.90
54124;DHT22;55741;53.252;5.788;2023-12-29T08:14:32;9.50;99.90
54124;DHT22;55741;53.252;5.788;2023-12-29T08:16:58;9.50;99.90
54124;DHT22;55741;53.252;5.788;2023-12-29T08:19:24;9.50;99.90
54124;DHT22;55741;53.252;5.788;2023-12-29T08:21:51;9.50;99.90
54124;DHT22;55741;53.252;5.788;2023-12-29T08:24:16;9.50;99.90
54124;DHT22;55741;53.252;5.788;2023-12-29T08:26:46;9.50;99.90
54124;DHT22;55741;53.252;5.788;2023-12-29T08:29:13;9.50;99.90
54124;DHT22;55741;53.252;5.788;2023-12-29T08:31:41;9.40;99.90
54124;DHT22;55741;53.252;5.788;2023-12-29T08:34:07;9.40;99.90
54124;DHT22;55741;53.252;5.788;2023-12-29T08:36:33;9.40;99.90
54124;DHT22;55741;53.252;5.788;2023-12-29T08:38:59;9.40;99.90
54124;DHT22;55741;53.252;5.788;2023-12-29T08:41:25;9.30;99.90
54124;DHT22;55741;53.252;5.788;2023-12-29T08:43:51;9.30;99.90
54124;DHT22;55741;53.252;5.788;2023-12-29T08:46:16;9.30;99.90
54124;DHT22;55741;53.252;5.788;2023-12-29T08:48:42;9.30;99.90
54124;DHT22;55741;53.252;5.788;2023-12-29T08:51:08;9.30;99.90
54124;DHT22;55741;53.252;5.788;2023-12-29T08:53:34;9.30;99.90
54124;DHT22;55741;53.252;5.788;2023-12-29T08:56:03;9.30;99.90
54124;DHT22;55741;53.252;5.788;2023-12-29T08:58:29;9.30;99.90
54124;DHT22;55741;53.252;5.788;2023-12-29T09:00:55;9.30;99.90
54124;DHT22;55741;53.252;5.788;2023-12-29T09:03:21;9.30;99.90
54124;DHT22;55741;53.252;5.788;2023-12-29T09:05:47;9.30;99.90
54124;DHT22;55741;53.252;5.788;2023-12-29T09:08:13;9.30;99.90
54124;DHT22;55741;53.252;5.788;2023-12-29T09:10:39;9.40;99.90
54124;DHT22;55741;53.252;5.788;2023-12-29T09:13:05;9.40;99.90
54124;DHT22;55741;53.252;5.788;2023-12-29T09:15:31;9.40;99.90
54124;DHT22;55741;53.252;5.788;2023-12-29T09:18:16;9.40;99.90
54124;DHT22;55741;53.252;5.788;2023-12-29T09:20:42;9.50;99.90
54124;DHT22;55741;53.252;5.788;2023-12-29T09:23:08;9.50;99.90
54124;DHT22;55741;53.252;5.788;2023-12-29T09:25:34;9.50;99.90
54124;DHT22;55741;53.252;5.788;2023-12-29T09:28:20;9.50;99.90
54124;DHT22;55741;53.252;5.788;2023-12-29T09:30:46;9.50;99.90
54124;DHT22;55741;53.252;5.788;2023-12-29T09:33:12;9.50;99.90
54124;DHT22;55741;53.252;5.788;2023-12-29T09:35:39;9.50;99.90
54124;DHT22;55741;53.252;5.788;2023-12-29T09:38:25;9.50;99.90
54124;DHT22;55741;53.252;5.788;2023-12-29T09:40:51;9.50;99.90
54124;DHT22;55741;53.252;5.788;2023-12-29T09:43:18;9.50;99.90
54124;DHT22;55741;53.252;5.788;2023-12-29T09:45:45;9.50;99.90
54124;DHT22;55741;53.252;5.788;2023-12-29T09:48:13;9.50;99.90
54124;DHT22;55741;53.252;5.788;2023-12-29T09:50:42;9.50;99.90
54124;DHT22;55741;53.252;5.788;2023-12-29T09:53:10;9.50;99.90
54124;DHT22;55741;53.252;5.788;2023-12-29T09:55:38;9.50;99.90
54124;DHT22;55741;53.252;5.788;2023-12-29T09:58:08;9.50;99.90
54124;DHT22;55741;53.252;5.788;2023-12-29T10:00:36;9.40;99.90
54124;DHT22;55741;53.252;5.788;2023-12-29T10:03:22;9.50;99.90
54124;DHT22;55741;53.252;5.788;2023-12-29T10:05:51;9.50;99.90
54124;DHT22;55741;53.252;5.788;2023-12-29T10:08:21;9.40;99.90
54124;DHT22;55741;53.252;5.788;2023-12-29T10:10:48;9.40;99.90
54124;DHT22;55741;53.252;5.788;2023-12-29T10:13:16;9.40;99.90
54124;DHT22;55741;53.252;5.788;2023-12-29T10:19:03;9.40;99.90
54124;DHT22;55741;53.252;5.788;2023-12-29T10:21:57;9.30;99.90
54124;DHT22;55741;53.252;5.788;2023-12-29T10:24:28;9.30;99.90
54124;DHT22;55741;53.252;5.788;2023-12-29T10:26:55;9.30;99.90
54124;DHT22;55741;53.252;5.788;2023-12-29T10:29:21;9.20;99.90
54124;DHT22;55741;53.252;5.788;2023-12-29T10:31:47;9.20;99.90
54124;DHT22;55741;53.252;5.788;2023-12-29T10:34:25;9.20;99.90
54124;DHT22;55741;53.252;5.788;2023-12-29T10:36:55;9.20;99.90
54124;DHT22;55741;53.252;5.788;2023-12-29T10:39:22;9.10;99.90
54124;DHT22;55741;53.252;5.788;2023-12-29T10:41:48;9.10;99.90
54124;DHT22;55741;53.252;5.788;2023-12-29T10:44:16;9.20;99.90
54124;DHT22;55741;53.252;5.788;2023-12-29T10:46:43;9.20;99.90
54124;DHT22;55741;53.252;5.788;2023-12-29T10:49:10;9.20;99.90
54124;DHT22;55741;53.252;5.788;2023-12-29T10:51:37;9.20;99.90
54124;DHT22;55741;53.252;5.788;2023-12-29T10:54:04;9.20;99.90
54124;DHT22;55741;53.252;5.788;2023-12-29T10:57:02;9.10;99.90
54124;DHT22;55741;53.252;5.788;2023-12-29T10:59:30;9.20;99.90
54124;DHT22;55741;53.252;5.788;2023-12-29T11:01:56;9.20;99.90
54124;DHT22;55741;53.252;5.788;2023-12-29T11:04:22;9.20;99.90
54124;DHT22;55741;53.252;5.788;2023-12-29T11:06:49;9.20;99.90
54124;DHT22;55741;53.252;5.788;2023-12-29T11:09:30;9.20;99.90
54124;DHT22;55741;53.252;5.788;2023-12-29T11:12:01;9.20;99.90
54124;DHT22;55741;53.252;5.788;2023-12-29T11:14:27;9.20;99.90
54124;DHT22;55741;53.252;5.788;2023-12-29T11:16:57;9.20;99.90
54124;DHT22;55741;53.252;5.788;2023-12-29T11:19:24;9.30;99.90
54124;DHT22;55741;53.252;5.788;2023-12-29T11:21:52;9.30;99.90
54124;DHT22;55741;53.252;5.788;2023-12-29T11:24:19;9.40;99.90
54124;DHT22;55741;53.252;5.788;2023-12-29T11:26:45;9.50;99.90
54124;DHT22;55741;53.252;5.788;2023-12-29T11:29:31;9.50;99.90
54124;DHT22;55741;53.252;5.788;2023-12-29T11:32:20;9.60;99.90
54124;DHT22;55741;53.252;5.788;2023-12-29T11:35:02;9.60;99.90
54124;DHT22;55741;53.252;5.788;2023-12-29T11:37:36;9.70;99.90
54124;DHT22;55741;53.252;5.788;2023-12-29T11:40:23;9.70;99.90
54124;DHT22;55741;53.252;5.788;2023-12-29T11:42:54;9.70;99.90
54124;DHT22;55741;53.252;5.788;2023-12-29T11:45:32;9.90;99.90
54124;DHT22;55741;53.252;5.788;2023-12-29T11:47:59;10.00;99.90
54124;DHT22;55741;53.252;5.788;2023-12-29T11:50:35;10.00;99.90
54124;DHT22;55741;53.252;5.788;2023-12-29T11:53:02;10.00;99.90
54124;DHT22;55741;53.252;5.788;2023-12-29T11:55:36;10.00;99.90
54124;DHT22;55741;53.252;5.788;2023-12-29T11:58:04;10.10;99.90
54124;DHT22;55741;53.252;5.788;2023-12-29T12:00:45;10.10;99.90
54124;DHT22;55741;53.252;5.788;2023-12-29T12:03:24;10.20;99.90
54124;DHT22;55741;53.252;5.788;2023-12-29T12:05:52;10.20;99.90
54124;DHT22;55741;53.252;5.788;2023-12-29T12:08:28;10.20;99.90
54124;DHT22;55741;53.252;5.788;2023-12-29T12:13:56;10.10;99.90
54124;DHT22;55741;53.252;5.788;2023-12-29T12:16:47;10.00;99.90
54124;DHT22;55741;53.252;5.788;2023-12-29T12:19:13;10.00;99.90
54124;DHT22;55741;53.252;5.788;2023-12-29T12:21:40;9.90;99.90
54124;DHT22;55741;53.252;5.788;2023-12-29T12:24:07;9.90;99.90
54124;DHT22;55741;53.252;5.788;2023-12-29T12:26:33;9.80;99.90
54124;DHT22;55741;53.252;5.788;2023-12-29T12:29:20;9.70;99.90
54124;DHT22;55741;53.252;5.788;2023-12-29T12:31:53;9.60;99.90
54124;DHT22;55741;53.252;5.788;2023-12-29T12:34:20;9.40;99.90
54124;DHT22;55741;53.252;5.788;2023-12-29T12:36:50;9.40;99.90
54124;DHT22;55741;53.252;5.788;2023-12-29T12:39:16;9.30;99.90
54124;DHT22;55741;53.252;5.788;2023-12-29T12:41:42;9.20;99.90
54124;DHT22;55741;53.252;5.788;2023-12-29T12:44:13;9.20;99.90
54124;DHT22;55741;53.252;5.788;2023-12-29T12:47:01;9.20;99.90
54124;DHT22;55741;53.252;5.788;2023-12-29T12:49:32;9.20;99.90
54124;DHT22;55741;53.252;5.788;2023-12-29T12:51:58;9.10;99.90
54124;DHT22;55741;53.252;5.788;2023-12-29T12:54:25;9.10;99.90
54124;DHT22;55741;53.252;5.788;2023-12-29T12:56:51;9.10;99.90
54124;DHT22;55741;53.252;5.788;2023-12-29T12:59:17;9.10;99.90
54124;DHT22;55741;53.252;5.788;2023-12-29T13:01:44;9.10;99.90
54124;DHT22;55741;53.252;5.788;2023-12-29T13:04:11;9.10;99.90
54124;DHT22;55741;53.252;5.788;2023-12-29T13:06:41;9.10;99.90
54124;DHT22;55741;53.252;5.788;2023-12-29T13:09:29;9.00;99.90
54124;DHT22;55741;53.252;5.788;2023-12-29T13:12:11;9.00;99.90
54124;DHT22;55741;53.252;5.788;2023-12-29T13:14:37;9.00;99.90
54124;DHT22;55741;53.252;5.788;2023-12-29T13:17:10;9.00;99.90
54124;DHT22;55741;53.252;5.788;2023-12-29T13:19:39;9.00;99.90
54124;DHT22;55741;53.252;5.788;2023-12-29T13:22:08;9.00;99.90
54124;DHT22;55741;53.252;5.788;2023-12-29T13:24:35;9.00;99.90
54124;DHT22;55741;53.252;5.788;2023-12-29T13:27:07;9.00;99.90
54124;DHT22;55741;53.252;5.788;2023-12-29T13:29:36;9.00;99.90
54124;DHT22;55741;53.252;5.788;2023-12-29T13:32:16;9.00;99.90
54124;DHT22;55741;53.252;5.788;2023-12-29T13:37:36;8.90;99.90
54124;DHT22;55741;53.252;5.788;2023-12-29T13:42:47;9.00;99.90
54124;DHT22;55741;53.252;5.788;2023-12-29T13:45:15;8.90;99.90
54124;DHT22;55741;53.252;5.788;2023-12-29T13:47:41;8.90;99.90
54124;DHT22;55741;53.252;5.788;2023-12-29T13:50:09;8.90;99.90
54124;DHT22;55741;53.252;5.788;2023-12-29T13:52:38;8.90;99.90
54124;DHT22;55741;53.252;5.788;2023-12-29T13:55:05;8.90;99.90
54124;DHT22;55741;53.252;5.788;2023-12-29T13:57:35;8.90;99.90
54124;DHT22;55741;53.252;5.788;2023-12-29T14:00:31;8.80;99.90
54124;DHT22;55741;53.252;5.788;2023-12-29T14:03:02;8.80;99.90
54124;DHT22;55741;53.252;5.788;2023-12-29T14:05:55;8.90;99.90
54124;DHT22;55741;53.252;5.788;2023-12-29T14:08:41;8.90;99.90
54124;DHT22;55741;53.252;5.788;2023-12-29T14:11:10;8.90;99.90
54124;DHT22;55741;53.252;5.788;2023-12-29T14:13:56;8.80;99.90
54124;DHT22;55741;53.252;5.788;2023-12-29T14:16:22;8.80;99.90
54124;DHT22;55741;53.252;5.788;2023-12-29T14:18:56;8.80;99.90
54124;DHT22;55741;53.252;5.788;2023-12-29T14:21:30;8.80;99.90
54124;DHT22;55741;53.252;5.788;2023-12-29T14:24:10;8.80;99.90
54124;DHT22;55741;53.252;5.788;2023-12-29T14:26:38;8.70;99.90
54124;DHT22;55741;53.252;5.788;2023-12-29T14:29:08;8.70;99.90
54124;DHT22;55741;53.252;5.788;2023-12-29T14:31:36;8.70;99.90
54124;DHT22;55741;53.252;5.788;2023-12-29T14:34:06;8.70;99.90
54124;DHT22;55741;53.252;5.788;2023-12-29T14:36:33;8.70;99.90
54124;DHT22;55741;53.252;5.788;2023-12-29T14:38:59;8.70;99.90
54124;DHT22;55741;53.252;5.788;2023-12-29T14:41:26;8.70;99.90
54124;DHT22;55741;53.252;5.788;2023-12-29T14:43:52;8.70;99.90
54124;DHT22;55741;53.252;5.788;2023-12-29T14:46:18;8.70;99.90
54124;DHT22;55741;53.252;5.788;2023-12-29T14:48:44;8.60;99.90
54124;DHT22;55741;53.252;5.788;2023-12-29T14:51:10;8.60;99.90
54124;DHT22;55741;53.252;5.788;2023-12-29T14:53:37;8.60;99.90
54124;DHT22;55741;53.252;5.788;2023-12-29T14:56:04;8.60;99.90
54124;DHT22;55741;53.252;5.788;2023-12-29T14:58:30;8.60;99.90
54124;DHT22;55741;53.252;5.788;2023-12-29T15:00:58;8.60;99.90
54124;DHT22;55741;53.252;5.788;2023-12-29T15:03:25;8.60;99.90
54124;DHT22;55741;53.252;5.788;2023-12-29T15:05:51;8.60;99.90
54124;DHT22;55741;53.252;5.788;2023-12-29T15:08:17;8.60;99.90
54124;DHT22;55741;53.252;5.788;2023-12-29T15:10:43;8.60;99.90
54124;DHT22;55741;53.252;5.788;2023-12-29T15:13:12;8.60;99.90
54124;DHT22;55741;53.252;5.788;2023-12-29T15:15:38;8.70;99.90
54124;DHT22;55741;53.252;5.788;2023-12-29T15:18:04;8.60;99.90
54124;DHT22;55741;53.252;5.788;2023-12-29T15:20:30;8.70;99.90
54124;DHT22;55741;53.252;5.788;2023-12-29T15:22:57;8.70;99.90
54124;DHT22;55741;53.252;5.788;2023-12-29T15:25:25;8.60;99.90
54124;DHT22;55741;53.252;5.788;2023-12-29T15:28:12;8.60;99.90
54124;DHT22;55741;53.252;5.788;2023-12-29T15:30:38;8.60;99.90
54124;DHT22;55741;53.252;5.788;2023-12-29T15:33:24;8.60;99.90
54124;DHT22;55741;53.252;5.788;2023-12-29T15:35:51;8.60;99.90
54124;DHT22;55741;53.252;5.788;2023-12-29T15:38:17;8.60;99.90
54124;DHT22;55741;53.252;5.788;2023-12-29T15:40:45;8.60;99.90
54124;DHT22;55741;53.252;5.788;2023-12-29T15:43:30;8.60;99.90
54124;DHT22;55741;53.252;5.788;2023-12-29T15:45:56;8.60;99.90
54124;DHT22;55741;53.252;5.788;2023-12-29T15:48:22;8.60;99.90
54124;DHT22;55741;53.252;5.788;2023-12-29T15:50:48;8.60;99.90
54124;DHT22;55741;53.252;5.788;2023-12-29T15:53:14;8.60;99.90
54124;DHT22;55741;53.252;5.788;2023-12-29T15:55:40;8.60;99.90
54124;DHT22;55741;53.252;5.788;2023-12-29T15:58:06;8.60;99.90
54124;DHT22;55741;53.252;5.788;2023-12-29T16:00:32;8.50;99.90
54124;DHT22;55741;53.252;5.788;2023-12-29T16:03:00;8.60;99.90
54124;DHT22;55741;53.252;5.788;2023-12-29T16:05:29;8.50;99.90